< < Back
Terminal Aerodrome Forecast


Current Version              Previous Versions:   1  2  3  4  5  6  7  8  9  

Terminal Aerodrome Forecast

968
FTUS42 KCHS 240500
TAFCHS
TAF
KCHS 240524Z 2406/2506 24006KT P6SM SCT150
     FM241900 23011G16KT P6SM VCTS SCT040CB
     FM250300 23006KT P6SM SCT050=



Latest METAR

975
SAUS80 KWBC 241300 RRA
MTRCHS
METAR KCHS 241256Z 26007KT 10SM CLR 29/23 A2998 RMK AO2 SLP150
T02890233


USA.gov is the U.S. government's official web portal to all federal, state and local government web resources and services.